Time;durP1;ratioP1;P1;durP2;ratioP2;P2;SDS_P1;SDS_P2;PMS_P1;PMS_P2;Temp;Humidity;BMP_temperature;BMP_pressure;BME280_temperature;BME280_humidity;BME280_pressure;Samples;Min_cycle;Max_cycle;Signal;HPM_P1;HPM_P2
2022/07/12 00:00:09;;;;;;;2.85;1.42;;;;;;;13.48;62.22;95086.47;4996333;28;20272;-77
2022/07/12 00:02:36;;;;;;;3.13;1.88;;;;;;;13.38;62.78;95081.47;4996827;28;20256;-77
2022/07/12 00:05:03;;;;;;;1.23;1.13;;;;;;;13.22;62.99;95094.06;4996786;28;20210;-77
2022/07/12 00:07:32;;;;;;;1.27;1.17;;;;;;;13.20;62.87;95090.88;4995316;28;20253;-76
2022/07/12 00:09:58;;;;;;;1.50;1.17;;;;;;;13.10;63.49;95083.09;4993712;28;20217;-77
2022/07/12 00:12:25;;;;;;;1.55;1.20;;;;;;;13.11;63.46;95090.13;4993595;28;20233;-76
2022/07/12 00:14:52;;;;;;;5.40;1.58;;;;;;;13.17;64.45;95088.81;4993553;28;20209;-76
2022/07/12 00:17:19;;;;;;;1.60;1.33;;;;;;;13.22;62.15;95080.47;4993447;28;20669;-75
2022/07/12 00:19:46;;;;;;;3.10;1.23;;;;;;;13.23;63.06;95082.06;4993200;28;20205;-76
2022/07/12 00:22:13;;;;;;;1.17;1.08;;;;;;;13.21;63.88;95084.31;4993166;28;20202;-76
2022/07/12 00:24:41;;;;;;;0.70;0.68;;;;;;;13.24;62.17;95078.22;4993212;28;20209;-76
2022/07/12 00:27:08;;;;;;;0.73;0.73;;;;;;;13.34;62.31;95080.53;4993114;28;20736;-75
2022/07/12 00:29:34;;;;;;;1.48;0.90;;;;;;;13.33;61.12;95084.38;4993363;28;20210;-76
2022/07/12 00:32:01;;;;;;;1.00;0.90;;;;;;;13.42;60.74;95079.63;4993161;28;20237;-75
2022/07/12 00:34:28;;;;;;;1.27;0.90;;;;;;;13.56;60.13;95081.28;4992547;28;20300;-75
2022/07/12 00:36:55;;;;;;;1.48;0.75;;;;;;;13.60;59.76;95084.94;4992702;28;20206;-75
2022/07/12 00:39:21;;;;;;;2.58;0.88;;;;;;;13.63;59.84;95067.94;4992884;28;20233;-75
2022/07/12 00:41:50;;;;;;;0.77;0.77;;;;;;;13.59;59.92;95080.63;4993102;28;20202;-75
2022/07/12 00:44:17;;;;;;;1.77;0.70;;;;;;;13.63;59.66;95076.09;4992389;28;20260;-76
2022/07/12 00:46:45;;;;;;;1.10;1.00;;;;;;;13.71;59.40;95064.31;4992827;28;20206;-75
2022/07/12 00:49:15;;;;;;;1.90;1.00;;;;;;;13.82;58.90;95071.72;4992542;28;20621;-75
2022/07/12 00:51:42;;;;;;;1.45;0.80;;;;;;;13.73;59.56;95070.22;4980044;28;20232;-76
2022/07/12 00:54:09;;;;;;;0.77;0.70;;;;;;;13.74;59.00;95071.81;4992662;28;20205;-74
2022/07/12 00:56:36;;;;;;;0.68;0.68;;;;;;;13.73;59.28;95071.03;4979915;28;20212;-75
2022/07/12 00:59:04;;;;;;;0.73;0.68;;;;;;;13.65;60.00;95066.47;4992637;28;20234;-75
2022/07/12 01:01:31;;;;;;;1.05;0.70;;;;;;;13.58;59.93;95068.13;4992946;28;20260;-75
2022/07/12 01:03:58;;;;;;;1.02;0.90;;;;;;;13.51;60.74;95060.53;4992226;28;20657;-76
2022/07/12 01:06:26;;;;;;;2.15;1.02;;;;;;;13.49;60.61;95062.78;4991963;28;20262;-76
2022/07/12 01:08:53;;;;;;;2.45;0.93;;;;;;;13.60;60.18;95060.44;4992200;28;20205;-75
2022/07/12 01:11:20;;;;;;;3.33;1.02;;;;;;;13.55;60.80;95066.88;4992182;28;20720;-75
2022/07/12 01:13:48;;;;;;;0.80;0.80;;;;;;;13.80;58.66;95057.63;4992317;28;20284;-73
2022/07/12 01:16:17;;;;;;;0.55;0.55;;;;;;;13.85;59.24;95064.81;4992343;28;20206;-75
2022/07/12 01:18:45;;;;;;;0.93;0.60;;;;;;;13.79;59.59;95066.16;4991297;28;20731;-74
2022/07/12 01:21:16;;;;;;;0.63;0.60;;;;;;;13.65;60.53;95065.69;4992302;28;20216;-75
2022/07/12 01:23:46;;;;;;;1.58;0.90;;;;;;;13.57;60.42;95063.81;4992460;28;20194;-76
2022/07/12 01:26:13;;;;;;;0.73;0.73;;;;;;;13.38;61.40;95067.84;4992187;28;20202;-75
2022/07/12 01:28:40;;;;;;;2.22;0.88;;;;;;;13.36;61.69;95072.03;4992250;28;20217;-75
2022/07/12 01:31:06;;;;;;;2.13;0.90;;;;;;;13.35;62.69;95073.16;4992344;28;20260;-75
2022/07/12 01:33:34;;;;;;;2.50;1.00;;;;;;;13.13;63.75;95071.53;4991386;28;20256;-76
2022/07/12 01:36:02;;;;;;;1.10;0.93;;;;;;;13.04;64.24;95070.81;4990941;28;20229;-75
2022/07/12 01:38:31;;;;;;;1.25;0.95;;;;;;;12.93;64.73;95072.34;4992145;28;20210;-75
2022/07/12 01:40:59;;;;;;;1.40;1.00;;;;;;;12.85;65.14;95065.06;4992112;28;20209;-75
2022/07/12 01:43:27;;;;;;;0.90;0.82;;;;;;;12.76;65.44;95074.06;4991577;28;20221;-75
2022/07/12 01:45:54;;;;;;;5.38;1.08;;;;;;;12.72;65.81;95069.59;4990973;28;20255;-76
2022/07/12 01:48:21;;;;;;;1.10;0.90;;;;;;;12.54;66.98;95074.38;4991003;28;20263;-75
2022/07/12 01:50:48;;;;;;;1.35;0.88;;;;;;;12.47;67.62;95074.06;4991702;28;20405;-75
2022/07/12 01:53:16;;;;;;;1.42;1.10;;;;;;;12.38;68.34;95071.41;4991561;28;20308;-75
2022/07/12 01:55:43;;;;;;;3.83;1.38;;;;;;;12.31;68.73;95071.13;4991668;28;20210;-74
2022/07/12 01:58:13;;;;;;;1.33;1.23;;;;;;;12.25;69.21;95071.63;4991190;28;20202;-75
2022/07/12 02:00:40;;;;;;;3.80;1.52;;;;;;;12.14;69.58;95073.13;4991416;28;20205;-75
2022/07/12 02:03:07;;;;;;;1.42;1.33;;;;;;;11.95;70.81;95087.09;4977977;28;20673;-76
2022/07/12 02:05:35;;;;;;;1.90;1.70;;;;;;;11.92;70.92;95076.88;4991227;28;20202;-75
2022/07/12 02:08:02;;;;;;;3.28;2.20;;;;;;;11.88;71.09;95076.75;4971645;28;20674;-76
2022/07/12 02:10:29;;;;;;;4.70;2.65;;;;;;;11.90;71.20;95079.91;4985693;28;20662;-77
2022/07/12 02:12:56;;;;;;;3.75;2.60;;;;;;;11.76;71.40;95079.31;4991761;28;20320;-76
2022/07/12 02:15:24;;;;;;;4.32;3.15;;;;;;;11.74;71.44;95067.97;4991623;28;20202;-76
2022/07/12 02:17:52;;;;;;;3.75;2.75;;;;;;;11.60;72.27;95076.31;4991329;28;20202;-77
2022/07/12 02:20:19;;;;;;;4.72;3.15;;;;;;;11.59;72.12;95079.34;4991246;28;20206;-77
2022/07/12 02:22:46;;;;;;;3.55;2.90;;;;;;;11.52;72.82;95073.59;4991190;28;20224;-77
2022/07/12 02:25:13;;;;;;;3.35;2.97;;;;;;;11.49;73.39;95074.22;4991311;28;20283;-77
2022/07/12 02:27:41;;;;;;;2.88;1.75;;;;;;;11.39;73.81;95081.59;4990908;28;20206;-77
2022/07/12 02:30:09;;;;;;;2.33;1.75;;;;;;;11.34;73.56;95078.28;4990700;28;20298;-77
2022/07/12 02:32:38;;;;;;;2.50;2.30;;;;;;;11.37;73.67;95081.13;4990205;28;20692;-77
2022/07/12 02:35:05;;;;;;;2.00;1.80;;;;;;;11.39;73.87;95076.16;4990915;28;20217;-77
2022/07/12 02:37:32;;;;;;;4.32;2.00;;;;;;;11.40;74.55;95077.78;4990514;28;20275;-77
2022/07/12 02:42:40;;;;;;;2.38;1.95;;;;;;;11.52;74.25;95084.44;4990740;28;20276;-77
2022/07/12 02:45:07;;;;;;;3.08;1.75;;;;;;;11.50;74.27;95078.53;4990742;28;20304;-77
2022/07/12 02:47:39;;;;;;;2.28;1.50;;;;;;;11.47;74.27;95079.22;4990652;28;20681;-75
2022/07/12 02:50:06;;;;;;;1.95;1.38;;;;;;;11.45;74.06;95078.72;4990262;28;20233;-76
2022/07/12 02:52:34;;;;;;;9.75;1.88;;;;;;;11.43;74.39;95087.19;4990760;28;20229;-75
2022/07/12 02:55:00;;;;;;;2.08;1.88;;;;;;;11.47;74.49;95081.94;4977769;28;20700;-75
2022/07/12 02:57:27;;;;;;;2.58;1.65;;;;;;;11.34;74.92;95084.47;4990846;28;20205;-75
2022/07/12 02:59:54;;;;;;;8.05;2.20;;;;;;;11.28;75.48;95088.47;4990789;28;20201;-75
2022/07/12 03:02:21;;;;;;;2.00;1.80;;;;;;;11.35;75.42;95093.41;4990365;28;20217;-76
2022/07/12 03:04:49;;;;;;;4.13;2.08;;;;;;;11.29;75.58;95100.13;4990991;28;20197;-76
2022/07/12 03:07:16;;;;;;;2.83;1.85;;;;;;;11.44;75.14;95104.25;4990533;28;20268;-76
2022/07/12 03:09:42;;;;;;;4.22;1.70;;;;;;;11.63;74.76;95096.56;4990615;28;20267;-75
2022/07/12 03:12:09;;;;;;;2.05;1.67;;;;;;;11.73;74.20;95093.53;4990378;28;20213;-75
2022/07/12 03:14:36;;;;;;;2.10;1.90;;;;;;;11.96;73.88;95105.78;4990600;28;20706;-75
2022/07/12 03:17:03;;;;;;;3.17;2.10;;;;;;;12.63;71.80;95105.00;4990469;28;20205;-77
2022/07/12 03:19:30;;;;;;;2.33;1.75;;;;;;;13.32;69.19;95096.38;4990204;28;20245;-77
2022/07/12 03:21:58;;;;;;;4.05;1.90;;;;;;;14.20;66.21;95098.72;4990529;28;20214;-74
2022/07/12 03:24:25;;;;;;;3.55;2.00;;;;;;;15.00;64.07;95100.06;4990422;28;20276;-75
2022/07/12 03:26:52;;;;;;;4.35;2.20;;;;;;;15.88;61.28;95090.91;4990056;28;20292;-75
2022/07/12 03:29:19;;;;;;;2.25;1.83;;;;;;;16.78;58.38;95098.31;4990014;28;20300;-76
2022/07/12 03:31:46;;;;;;;2.67;2.13;;;;;;;16.84;57.10;95090.59;4989883;28;20205;-76
2022/07/12 03:34:12;;;;;;;2.85;2.58;;;;;;;16.95;56.42;95094.38;4990137;28;20249;-77
2022/07/12 03:36:39;;;;;;;3.50;1.98;;;;;;;17.27;55.41;95097.84;4990385;28;20214;-76
2022/07/12 03:39:07;;;;;;;1.98;1.77;;;;;;;17.10;54.76;95099.03;4989790;28;20272;-76
2022/07/12 03:41:34;;;;;;;2.00;1.73;;;;;;;17.07;54.83;95088.03;4990585;28;20288;-76
2022/07/12 03:44:01;;;;;;;3.83;1.23;;;;;;;17.01;53.92;95096.50;4993376;28;20205;-76
2022/07/12 03:46:28;;;;;;;2.85;1.30;;;;;;;17.17;53.37;95103.88;4994134;28;20256;-76
2022/07/12 03:48:54;;;;;;;2.25;1.67;;;;;;;16.45;54.28;95106.06;4993849;28;20776;-76
2022/07/12 03:51:21;;;;;;;2.00;1.55;;;;;;;16.54;54.46;95098.47;4993421;28;20264;-75
2022/07/12 03:53:48;;;;;;;1.92;1.50;;;;;;;17.48;53.39;95101.03;4994257;28;20233;-76
2022/07/12 03:57:13;;;;;;;2.88;1.40;;;;;;;18.35;50.81;95094.91;4994255;28;20202;-76
2022/07/12 03:59:04;;;;;;;3.65;1.83;;;;;;;19.80;48.89;95081.78;4993163;28;20207;-78
2022/07/12 04:01:32;;;;;;;1.70;1.60;;;;;;;20.48;45.61;95084.09;4993719;28;20201;-77
2022/07/12 04:04:00;;;;;;;2.20;1.40;;;;;;;21.21;43.90;95081.50;4993692;28;20224;-76
2022/07/12 04:06:26;;;;;;;1.92;1.17;;;;;;;21.41;42.49;95080.06;4993933;28;20546;-77
2022/07/12 04:08:53;;;;;;;2.05;1.40;;;;;;;20.75;43.74;95092.19;4993453;28;20211;-76
2022/07/12 04:11:22;;;;;;;2.65;1.42;;;;;;;20.45;45.35;95090.34;4993250;28;20205;-77
2022/07/12 04:13:48;;;;;;;2.92;1.52;;;;;;;21.24;44.32;95091.75;4993118;28;20238;-77
2022/07/12 04:16:15;;;;;;;2.95;2.40;;;;;;;21.95;42.27;95092.91;4993257;28;20197;-77
2022/07/12 04:18:42;;;;;;;3.30;1.90;;;;;;;22.14;41.19;95091.03;4992842;28;20212;-76
2022/07/12 04:21:09;;;;;;;3.17;1.98;;;;;;;21.60;42.47;95099.03;4992987;28;20209;-77
2022/07/12 04:23:35;;;;;;;2.80;1.70;;;;;;;21.25;42.64;95116.19;4993407;28;20213;-76
2022/07/12 04:26:02;;;;;;;1.85;1.75;;;;;;;22.11;41.71;95100.06;4993512;28;20201;-77
2022/07/12 04:28:30;;;;;;;2.97;1.90;;;;;;;22.80;39.74;95097.06;4992937;28;20901;-77
2022/07/12 04:30:57;;;;;;;2.10;1.90;;;;;;;23.46;39.07;95094.63;4993161;28;20206;-77
2022/07/12 04:33:24;;;;;;;3.17;1.88;;;;;;;22.46;39.69;95111.19;4992832;28;20248;-79
2022/07/12 04:35:51;;;;;;;3.10;1.90;;;;;;;22.73;41.05;95110.81;4993235;28;20205;-77
2022/07/12 04:38:18;;;;;;;3.28;1.92;;;;;;;23.79;39.05;95105.22;4993096;28;20210;-79
2022/07/12 04:40:44;;;;;;;2.33;2.10;;;;;;;22.92;39.25;95110.47;4992074;28;20221;-77
2022/07/12 04:43:11;;;;;;;3.28;1.88;;;;;;;24.06;38.19;95106.28;4992923;28;20949;-77
2022/07/12 04:45:43;;;;;;;2.20;1.90;;;;;;;24.25;37.06;95101.50;4993009;28;20198;-76
2022/07/12 04:48:10;;;;;;;2.67;1.80;;;;;;;24.77;36.66;95100.34;4992865;28;20237;-77
2022/07/12 04:50:37;;;;;;;2.92;2.30;;;;;;;25.74;35.23;95103.09;4992785;28;20665;-77
2022/07/12 04:53:04;;;;;;;5.05;2.33;;;;;;;25.65;34.91;95106.38;4992539;28;20229;-77
2022/07/12 04:55:31;;;;;;;3.72;2.13;;;;;;;25.05;35.52;95109.69;4991924;28;20673;-77
2022/07/12 04:57:58;;;;;;;3.40;2.05;;;;;;;24.73;36.06;95109.91;4992665;28;20210;-77
2022/07/12 05:00:25;;;;;;;4.15;2.50;;;;;;;24.56;36.63;95110.81;4992387;28;20681;-76
2022/07/12 05:02:53;;;;;;;4.03;2.28;;;;;;;25.95;34.92;95099.28;4992667;28;20629;-77
2022/07/12 05:05:20;;;;;;;2.40;2.08;;;;;;;26.87;33.72;95096.03;4992774;28;20289;-77
2022/07/12 05:07:47;;;;;;;2.33;2.03;;;;;;;27.20;32.92;95099.88;4992729;28;20209;-77
2022/07/12 05:10:14;;;;;;;3.45;2.17;;;;;;;28.32;31.36;95099.41;4992480;28;20213;-76
2022/07/12 05:12:40;;;;;;;2.45;2.17;;;;;;;27.02;32.71;95104.97;4991964;28;20615;-78
2022/07/12 05:15:08;;;;;;;3.20;2.13;;;;;;;27.69;31.81;95099.47;4991881;28;20229;-78
2022/07/12 05:17:35;;;;;;;3.78;2.20;;;;;;;27.00;33.08;95099.03;4992074;28;20209;-78
2022/07/12 05:20:04;;;;;;;2.42;2.13;;;;;;;28.69;31.05;95090.63;4991600;28;20256;-76
2022/07/12 05:22:30;;;;;;;3.75;2.00;;;;;;;27.82;31.51;95094.84;4992261;28;20205;-77
2022/07/12 05:24:57;;;;;;;2.85;2.08;;;;;;;27.37;31.80;95100.78;4991683;28;20209;-78
2022/07/12 05:27:24;;;;;;;3.17;2.17;;;;;;;25.86;34.26;95116.44;4991874;28;20210;-77
2022/07/12 05:29:51;;;;;;;4.40;2.53;;;;;;;25.66;34.22;95127.38;4992391;28;20292;-77
2022/07/12 05:32:18;;;;;;;7.68;2.80;;;;;;;26.04;34.39;95117.03;4992346;28;20210;-77
2022/07/12 05:34:44;;;;;;;4.28;2.20;;;;;;;25.96;34.24;95112.75;4992648;28;20218;-77
2022/07/12 05:37:13;;;;;;;6.80;2.45;;;;;;;26.37;34.08;95114.66;4979860;28;20661;-78
2022/07/12 05:39:39;;;;;;;5.20;2.60;;;;;;;26.84;33.23;95110.00;4992032;28;20206;-76
2022/07/12 05:42:06;;;;;;;4.03;2.92;;;;;;;26.26;33.17;95102.84;4991709;28;20213;-77
2022/07/12 05:44:33;;;;;;;3.55;2.20;;;;;;;26.63;33.49;95102.78;4991884;28;20205;-79
2022/07/12 05:47:00;;;;;;;3.72;2.40;;;;;;;27.56;33.46;95100.09;4984135;28;20206;-79
2022/07/12 05:49:27;;;;;;;2.80;2.50;;;;;;;27.34;32.45;95087.72;4986902;28;20798;-80
2022/07/12 05:54:39;;;;;;;3.72;2.30;;;;;;;28.64;30.91;95093.91;4991225;28;20655;-78
2022/07/12 05:57:06;;;;;;;3.33;2.08;;;;;;;28.64;31.87;95094.72;4991665;28;20205;-78
2022/07/12 05:59:35;;;;;;;3.17;2.63;;;;;;;28.24;31.84;95093.22;4992008;28;20634;-79
2022/07/12 06:02:02;;;;;;;3.03;2.33;;;;;;;27.80;31.30;95097.25;4991720;28;20272;-77
2022/07/12 06:04:29;;;;;;;4.68;2.75;;;;;;;26.96;33.20;95103.09;4991793;28;20260;-80
2022/07/12 06:06:56;;;;;;;3.72;2.78;;;;;;;26.48;33.93;95115.31;4991767;28;20301;-77
2022/07/12 06:09:23;;;;;;;2.22;1.85;;;;;;;27.80;32.34;95092.47;4991364;28;20208;-79
2022/07/12 06:11:51;;;;;;;3.25;2.10;;;;;;;28.67;31.56;95090.28;4991329;28;20198;-78
2022/07/12 06:14:18;;;;;;;3.13;1.83;;;;;;;29.26;29.88;95089.25;4990583;28;20233;-77
2022/07/12 06:16:45;;;;;;;6.78;2.55;;;;;;;27.73;31.33;95097.41;4991566;28;20202;-78
2022/07/12 06:19:12;;;;;;;2.60;1.63;;;;;;;27.75;31.12;95084.59;4991671;28;20198;-80
2022/07/12 06:21:39;;;;;;;2.85;1.63;;;;;;;27.62;30.84;95082.88;4991380;28;20205;-78
2022/07/12 06:24:06;;;;;;;1.42;1.05;;;;;;;25.02;34.68;95093.84;4978209;28;20237;-74
2022/07/12 06:26:33;;;;;;;1.98;1.10;;;;;;;24.14;35.35;95106.28;4990275;28;20700;-79
2022/07/12 06:29:01;;;;;;;1.88;1.20;;;;;;;26.61;32.91;95091.28;4990619;28;20562;-77
2022/07/12 06:31:28;;;;;;;2.95;1.20;;;;;;;27.51;30.16;95085.84;4990158;28;20262;-79
2022/07/12 06:33:55;;;;;;;3.13;1.10;;;;;;;28.35;29.35;95085.41;4990483;28;20280;-76
2022/07/12 06:36:21;;;;;;;2.55;1.15;;;;;;;26.37;31.56;95095.22;4990978;28;20260;-77
2022/07/12 06:38:48;;;;;;;2.45;1.30;;;;;;;26.79;31.51;95102.91;4991020;28;20202;-77
2022/07/12 06:41:15;;;;;;;3.10;1.40;;;;;;;26.09;33.19;95094.34;4990908;28;20205;-76
2022/07/12 06:43:42;;;;;;;1.95;1.00;;;;;;;25.09;33.02;95093.81;4991016;28;20260;-75
2022/07/12 06:46:10;;;;;;;3.88;1.20;;;;;;;24.35;34.42;95100.63;4990582;28;20306;-78
2022/07/12 06:48:37;;;;;;;3.72;1.27;;;;;;;26.40;32.34;95100.69;4991123;28;20301;-81
2022/07/12 06:51:04;;;;;;;1.20;1.00;;;;;;;26.40;32.17;95097.13;4991086;28;20201;-77
2022/07/12 06:53:31;;;;;;;1.58;1.30;;;;;;;24.91;34.19;95093.13;4989230;28;20289;-75
2022/07/12 06:55:58;;;;;;;3.22;1.40;;;;;;;25.75;34.11;95086.03;4989697;28;20206;-79
2022/07/12 06:58:24;;;;;;;2.25;1.02;;;;;;;25.65;33.00;95081.38;4991646;28;20267;-77
2022/07/12 07:00:51;;;;;;;1.58;1.05;;;;;;;27.93;31.23;95073.91;4992367;28;20312;-79
2022/07/12 07:03:19;;;;;;;2.65;1.38;;;;;;;25.06;35.21;95091.84;5000308;28;20252;-80
2022/07/12 07:05:46;;;;;;;3.63;1.80;;;;;;;26.53;32.17;95084.25;4999243;28;20197;-80
2022/07/12 07:08:13;;;;;;;1.65;1.25;;;;;;;25.19;33.54;95087.38;5003089;28;21064;-76
2022/07/12 07:10:40;;;;;;;2.45;1.30;;;;;;;26.53;32.25;95089.81;4996096;28;20253;-77
2022/07/12 07:13:10;;;;;;;1.77;1.10;;;;;;;25.21;34.34;95084.97;5003787;28;20572;-78
2022/07/12 07:15:37;;;;;;;2.85;1.52;;;;;;;26.49;32.82;95083.53;5001149;28;20269;-78
2022/07/12 07:18:04;;;;;;;5.43;1.40;;;;;;;26.13;32.43;95089.53;4993719;28;20216;-80
2022/07/12 07:20:32;;;;;;;2.25;1.30;;;;;;;25.22;33.63;95094.09;4993517;28;20209;-78
2022/07/12 07:22:58;;;;;;;2.15;1.20;;;;;;;26.80;31.63;95082.22;4987416;28;20627;-80
2022/07/12 07:25:25;;;;;;;1.85;1.00;;;;;;;27.47;30.11;95077.53;4994035;28;20202;-76
2022/07/12 07:27:52;;;;;;;1.85;1.27;;;;;;;26.69;32.50;95086.38;4994161;28;20619;-78
2022/07/12 07:33:03;;;;;;;2.03;1.30;;;;;;;26.74;32.54;95086.72;4993979;28;20240;-78
2022/07/12 07:35:29;;;;;;;2.33;1.02;;;;;;;26.33;32.07;95091.69;4993534;28;20234;-77
2022/07/12 07:37:58;;;;;;;1.38;1.00;;;;;;;26.72;32.50;95091.91;4993234;28;20938;-74
2022/07/12 07:40:24;;;;;;;1.55;1.17;;;;;;;26.48;31.24;95087.50;4980924;28;20209;-75
2022/07/12 07:42:51;;;;;;;1.63;0.88;;;;;;;24.86;33.99;95090.81;4993732;28;20209;-74
2022/07/12 07:45:18;;;;;;;1.27;1.17;;;;;;;24.58;34.74;95081.50;4993800;28;20209;-74
2022/07/12 07:47:46;;;;;;;1.00;0.90;;;;;;;23.87;36.09;95086.63;4993402;28;20229;-76
2022/07/12 07:50:13;;;;;;;2.45;1.13;;;;;;;23.18;36.73;95098.22;4993682;28;20297;-76
2022/07/12 07:52:39;;;;;;;2.25;1.10;;;;;;;23.38;36.67;95088.31;4993943;28;20268;-75
2022/07/12 07:55:08;;;;;;;2.40;1.08;;;;;;;23.35;34.62;95092.69;4993318;28;20762;-79
2022/07/12 07:57:35;;;;;;;1.67;1.10;;;;;;;24.11;32.19;95094.00;4993892;28;20257;-74
2022/07/12 08:00:02;;;;;;;0.90;0.80;;;;;;;24.65;33.27;95081.44;4993034;28;20577;-76
2022/07/12 08:02:29;;;;;;;1.23;0.90;;;;;;;25.28;30.27;95079.38;4993350;28;20699;-77
2022/07/12 08:04:55;;;;;;;1.15;0.80;;;;;;;25.59;31.25;95082.22;4993262;28;20209;-74
2022/07/12 08:07:22;;;;;;;1.27;0.80;;;;;;;25.74;31.28;95083.66;4993595;28;20197;-76
2022/07/12 08:09:49;;;;;;;0.93;0.77;;;;;;;25.47;30.44;95078.78;4993817;28;20205;-77
2022/07/12 08:12:17;;;;;;;1.20;0.90;;;;;;;26.10;31.20;95073.69;4993549;28;20202;-78
2022/07/12 08:14:44;;;;;;;2.13;0.80;;;;;;;25.97;30.46;95075.44;4993498;28;20253;-78
2022/07/12 08:17:10;;;;;;;1.40;0.95;;;;;;;26.60;30.31;95073.03;4992944;28;20206;-75
2022/07/12 08:19:37;;;;;;;1.40;1.00;;;;;;;24.85;33.30;95072.59;4992786;28;20267;-73
2022/07/12 08:22:05;;;;;;;2.17;1.30;;;;;;;22.83;35.68;95074.16;4992932;28;20287;-75
2022/07/12 08:24:31;;;;;;;4.10;1.30;;;;;;;23.65;36.12;95058.22;4992854;28;20260;-74
2022/07/12 08:26:58;;;;;;;1.88;1.00;;;;;;;23.87;35.21;95070.81;4992674;28;20981;-73
2022/07/12 08:29:27;;;;;;;2.50;1.10;;;;;;;22.07;36.89;95082.72;4991785;28;20665;-75
2022/07/12 08:31:53;;;;;;;1.30;0.90;;;;;;;21.92;37.20;95079.88;4992831;28;20209;-75
2022/07/12 08:34:20;;;;;;;2.42;0.80;;;;;;;23.64;35.67;95062.22;4992248;28;20248;-75
2022/07/12 08:36:47;;;;;;;1.92;0.75;;;;;;;24.59;32.03;95058.16;4992596;28;20190;-74
2022/07/12 08:39:14;;;;;;;4.13;0.98;;;;;;;24.39;32.22;95046.00;4992322;28;20209;-75
2022/07/12 08:41:40;;;;;;;2.55;1.00;;;;;;;24.67;33.22;95056.91;4991449;28;20205;-76
2022/07/12 08:44:08;;;;;;;0.93;0.88;;;;;;;24.16;33.14;95065.13;4992049;28;20201;-78
2022/07/12 08:46:36;;;;;;;2.63;0.88;;;;;;;25.35;31.59;95046.00;4993019;28;20642;-78
2022/07/12 08:49:07;;;;;;;4.72;1.00;;;;;;;25.24;32.29;95045.34;4992160;28;20210;-74
2022/07/12 08:51:34;;;;;;;1.23;0.77;;;;;;;24.69;31.63;95043.41;4992403;28;20288;-73
2022/07/12 08:54:08;;;;;;;0.93;0.80;;;;;;;24.31;33.76;95050.03;4992133;28;20249;-75
2022/07/12 08:56:37;;;;;;;2.40;0.90;;;;;;;25.06;30.48;95044.72;4993022;28;20229;-73
2022/07/12 08:59:11;;;;;;;0.93;0.75;;;;;;;25.61;30.17;95040.97;4992676;28;20276;-73
2022/07/12 09:01:45;;;;;;;2.72;0.80;;;;;;;24.00;32.70;95041.47;4992331;28;20209;-75
2022/07/12 09:04:13;;;;;;;4.05;0.90;;;;;;;22.77;34.48;95042.59;4992144;28;20205;-75
2022/07/12 09:06:40;;;;;;;2.70;0.98;;;;;;;23.54;33.09;95051.94;4992290;28;20217;-75
2022/07/12 09:09:08;;;;;;;1.60;0.75;;;;;;;23.48;34.98;95053.53;4992544;28;20225;-76
2022/07/12 09:11:37;;;;;;;1.27;0.98;;;;;;;22.62;33.08;95048.09;4991866;28;20292;-76
2022/07/12 09:14:04;;;;;;;1.98;1.02;;;;;;;22.55;33.23;95031.50;4991738;28;20297;-75
2022/07/12 09:16:31;;;;;;;0.73;0.70;;;;;;;23.28;32.97;95040.13;4992234;28;20205;-77
2022/07/12 09:19:17;;;;;;;4.32;0.90;;;;;;;22.76;34.92;95046.50;4991778;28;20209;-77
2022/07/12 09:21:50;;;;;;;1.42;0.80;;;;;;;23.29;34.07;95038.97;4991871;28;20209;-77
2022/07/12 09:24:18;;;;;;;1.88;0.70;;;;;;;23.61;33.79;95035.34;4992440;28;20333;-76
2022/07/12 09:26:46;;;;;;;1.90;1.00;;;;;;;23.77;33.02;95032.13;4992048;28;20256;-75
2022/07/12 09:29:14;;;;;;;0.73;0.70;;;;;;;23.77;31.31;95027.38;4991970;28;20253;-75
2022/07/12 09:36:06;;;;;;;2.20;0.63;;;;;;;24.09;29.44;95033.50;4991684;28;20212;-78
2022/07/12 09:37:15;;;;;;;3.08;0.80;;;;;;;23.92;31.42;95017.00;4979652;28;20205;-77
2022/07/12 09:39:43;;;;;;;5.47;1.10;;;;;;;22.69;33.00;95031.50;4991521;28;20636;-78
2022/07/12 09:42:11;;;;;;;1.65;0.68;;;;;;;22.56;32.49;95038.59;4991801;28;20210;-75
2022/07/12 09:44:38;;;;;;;1.23;0.70;;;;;;;22.45;32.92;95037.03;4991808;28;20210;-76
2022/07/12 09:47:09;;;;;;;0.95;0.80;;;;;;;23.45;32.03;95026.66;4991251;28;20752;-77
2022/07/12 09:49:39;;;;;;;0.95;0.77;;;;;;;23.95;31.75;95022.50;4991860;28;20272;-76
2022/07/12 09:52:09;;;;;;;0.93;0.70;;;;;;;23.46;32.35;95036.53;4991225;28;20204;-75
2022/07/12 09:54:40;;;;;;;2.05;0.80;;;;;;;23.79;32.86;95035.25;4991900;28;20554;-77
2022/07/12 09:57:19;;;;;;;1.05;0.77;;;;;;;24.59;31.98;95015.81;4991942;28;20197;-78
2022/07/12 09:59:46;;;;;;;1.83;0.75;;;;;;;23.70;32.36;95027.38;4991759;28;20209;-74
2022/07/12 10:02:15;;;;;;;1.75;0.60;;;;;;;24.16;31.12;95021.63;4991030;28;20205;-75
2022/07/12 10:04:43;;;;;;;1.63;0.70;;;;;;;23.65;30.84;95030.56;4978158;28;20236;-78
2022/07/12 10:07:13;;;;;;;2.00;0.70;;;;;;;23.98;31.46;95026.47;4991316;28;20202;-73
2022/07/12 10:09:41;;;;;;;0.40;0.40;;;;;;;23.80;29.61;95028.53;4991097;28;20205;-75
2022/07/12 10:12:09;;;;;;;3.58;0.77;;;;;;;23.52;31.56;95021.13;4991461;28;20249;-78
2022/07/12 10:14:38;;;;;;;1.55;0.70;;;;;;;23.48;31.68;95031.41;4991203;28;20244;-76
2022/07/12 10:17:09;;;;;;;1.38;0.77;;;;;;;23.23;31.69;95034.25;4990820;28;20288;-75
2022/07/12 10:19:36;;;;;;;2.45;0.75;;;;;;;22.92;31.58;95033.13;4990708;28;20190;-74
2022/07/12 10:22:06;;;;;;;1.88;0.90;;;;;;;23.16;31.87;95021.22;4990544;28;20202;-75
2022/07/12 10:24:51;;;;;;;1.77;1.15;;;;;;;24.13;30.46;95005.03;4990686;28;20732;-76
2022/07/12 10:27:34;;;;;;;1.42;0.70;;;;;;;24.28;30.02;95014.84;4990560;28;20292;-72
2022/07/12 10:30:17;;;;;;;1.88;0.70;;;;;;;23.35;30.55;95015.25;4990696;28;20205;-75
2022/07/12 10:32:45;;;;;;;0.88;0.45;;;;;;;23.05;29.91;95023.22;4989275;28;20243;-72
2022/07/12 10:35:18;;;;;;;0.60;0.60;;;;;;;23.09;30.27;95015.72;4990276;28;20229;-75
2022/07/12 10:38:18;;;;;;;2.78;0.65;;;;;;;23.33;32.70;95006.56;4990937;28;20233;-76
2022/07/12 10:40:48;;;;;;;1.92;0.55;;;;;;;23.69;31.38;94998.94;4981549;28;20618;-78
2022/07/12 10:43:17;;;;;;;1.95;0.50;;;;;;;23.90;29.93;95002.78;4990664;28;20221;-76
2022/07/12 10:45:46;;;;;;;2.25;0.77;;;;;;;23.84;31.08;94996.88;4990702;28;20213;-77
2022/07/12 10:48:24;;;;;;;3.72;0.63;;;;;;;23.73;31.28;95001.69;4990370;28;20217;-78
2022/07/12 10:50:57;;;;;;;1.73;0.70;;;;;;;23.23;31.77;94998.31;4990202;28;20201;-73
2022/07/12 10:53:33;;;;;;;1.20;0.70;;;;;;;23.45;32.58;95004.53;4976958;28;20300;-77
2022/07/12 10:56:15;;;;;;;1.33;0.80;;;;;;;23.11;32.00;95007.78;4990569;28;20221;-77
2022/07/12 10:58:43;;;;;;;3.67;0.63;;;;;;;22.97;30.67;95007.81;4990809;28;20628;-75
2022/07/12 11:01:12;;;;;;;1.67;0.60;;;;;;;23.36;30.99;95002.22;4990599;28;20255;-73
2022/07/12 11:03:40;;;;;;;2.28;0.70;;;;;;;24.08;33.07;95004.25;4990942;28;20202;-77
2022/07/12 11:06:08;;;;;;;1.88;1.08;;;;;;;23.85;31.39;95011.50;4990084;28;20738;-77
2022/07/12 11:08:56;;;;;;;1.60;0.98;;;;;;;23.55;30.69;95003.75;4990799;28;20260;-75
2022/07/12 11:11:25;;;;;;;3.50;1.10;;;;;;;23.69;31.71;95000.91;4978538;28;20280;-77
2022/07/12 11:13:52;;;;;;;2.45;1.15;;;;;;;24.20;32.26;95004.97;4990591;28;20280;-76
2022/07/12 11:16:19;;;;;;;0.70;0.63;;;;;;;24.28;30.76;95001.00;4990452;28;20237;-76
2022/07/12 11:18:47;;;;;;;1.00;0.70;;;;;;;23.99;32.29;94995.63;4990619;28;20206;-76
2022/07/12 11:21:14;;;;;;;1.30;0.80;;;;;;;23.21;31.75;95018.06;4989816;28;20614;-72
2022/07/12 11:23:44;;;;;;;1.50;0.73;;;;;;;23.21;32.42;95012.53;4990668;28;20210;-74
2022/07/12 11:26:14;;;;;;;2.55;0.70;;;;;;;23.00;33.42;95001.50;4990185;28;20250;-76
2022/07/12 11:28:42;;;;;;;0.90;0.80;;;;;;;23.15;34.39;95014.13;4990146;28;20205;-74
2022/07/12 11:31:11;;;;;;;2.10;0.88;;;;;;;23.52;33.91;94996.25;4990269;28;20853;-74
2022/07/12 11:33:39;;;;;;;0.77;0.70;;;;;;;22.97;34.86;95003.09;4990079;28;20735;-76
2022/07/12 11:36:08;;;;;;;2.70;1.00;;;;;;;22.63;34.23;95001.94;4990085;28;20316;-75
2022/07/12 11:38:36;;;;;;;0.73;0.73;;;;;;;22.82;35.05;95009.84;4989612;28;20256;-75
2022/07/12 11:41:04;;;;;;;1.15;0.75;;;;;;;22.64;33.47;94996.00;4989782;28;20213;-75
2022/07/12 11:43:35;;;;;;;1.85;1.02;;;;;;;22.56;34.51;94983.38;4990256;28;20260;-74
2022/07/12 11:46:02;;;;;;;1.63;0.90;;;;;;;22.88;35.88;94988.91;4990096;28;20248;-76
2022/07/12 11:48:32;;;;;;;0.75;0.70;;;;;;;22.99;33.72;94986.09;4977751;28;20232;-73